sensor_id;sensor_type;location;lat;lon;timestamp;P1;durP1;ratioP1;P2;durP2;ratioP2
36551;SDS011;22559;54.176;12.102;2023-11-21T00:00:44;6.77;;;5.30;;
36551;SDS011;22559;54.176;12.102;2023-11-21T00:03:11;5.73;;;4.50;;
36551;SDS011;22559;54.176;12.102;2023-11-21T00:05:39;5.00;;;4.60;;
36551;SDS011;22559;54.176;12.102;2023-11-21T00:08:06;5.43;;;4.40;;
36551;SDS011;22559;54.176;12.102;2023-11-21T00:10:32;6.13;;;4.47;;
36551;SDS011;22559;54.176;12.102;2023-11-21T00:12:58;4.90;;;4.40;;
36551;SDS011;22559;54.176;12.102;2023-11-21T00:15:24;5.70;;;4.93;;
36551;SDS011;22559;54.176;12.102;2023-11-21T00:17:51;4.60;;;4.10;;
36551;SDS011;22559;54.176;12.102;2023-11-21T00:20:17;5.20;;;4.70;;
36551;SDS011;22559;54.176;12.102;2023-11-21T00:22:42;5.23;;;4.73;;
36551;SDS011;22559;54.176;12.102;2023-11-21T00:25:08;5.00;;;4.50;;
36551;SDS011;22559;54.176;12.102;2023-11-21T00:27:34;6.03;;;5.07;;
36551;SDS011;22559;54.176;12.102;2023-11-21T00:30:01;5.47;;;4.40;;
36551;SDS011;22559;54.176;12.102;2023-11-21T00:32:26;4.73;;;4.33;;
36551;SDS011;22559;54.176;12.102;2023-11-21T00:34:52;4.90;;;4.20;;
36551;SDS011;22559;54.176;12.102;2023-11-21T00:37:19;4.90;;;4.37;;
36551;SDS011;22559;54.176;12.102;2023-11-21T00:39:45;4.47;;;4.03;;
36551;SDS011;22559;54.176;12.102;2023-11-21T00:42:10;4.70;;;4.30;;
36551;SDS011;22559;54.176;12.102;2023-11-21T00:44:37;4.70;;;4.30;;
36551;SDS011;22559;54.176;12.102;2023-11-21T00:47:04;5.03;;;4.37;;
36551;SDS011;22559;54.176;12.102;2023-11-21T00:49:30;5.30;;;4.53;;
36551;SDS011;22559;54.176;12.102;2023-11-21T00:51:55;4.60;;;4.20;;
36551;SDS011;22559;54.176;12.102;2023-11-21T00:54:23;4.70;;;4.30;;
36551;SDS011;22559;54.176;12.102;2023-11-21T00:56:48;4.67;;;4.27;;
36551;SDS011;22559;54.176;12.102;2023-11-21T00:59:14;4.70;;;4.30;;
36551;SDS011;22559;54.176;12.102;2023-11-21T01:01:40;5.33;;;4.40;;
36551;SDS011;22559;54.176;12.102;2023-11-21T01:04:05;4.33;;;3.93;;
36551;SDS011;22559;54.176;12.102;2023-11-21T01:06:32;4.40;;;4.10;;
36551;SDS011;22559;54.176;12.102;2023-11-21T01:08:58;4.70;;;4.03;;
36551;SDS011;22559;54.176;12.102;2023-11-21T01:11:23;4.40;;;4.00;;
36551;SDS011;22559;54.176;12.102;2023-11-21T01:13:49;4.80;;;3.87;;
36551;SDS011;22559;54.176;12.102;2023-11-21T01:16:15;4.60;;;4.20;;
36551;SDS011;22559;54.176;12.102;2023-11-21T01:18:40;4.93;;;4.23;;
36551;SDS011;22559;54.176;12.102;2023-11-21T01:21:06;5.27;;;4.00;;
36551;SDS011;22559;54.176;12.102;2023-11-21T01:23:32;4.37;;;3.97;;
36551;SDS011;22559;54.176;12.102;2023-11-21T01:25:58;5.07;;;3.87;;
36551;SDS011;22559;54.176;12.102;2023-11-21T01:28:24;5.20;;;3.80;;
36551;SDS011;22559;54.176;12.102;2023-11-21T01:30:49;4.33;;;3.93;;
36551;SDS011;22559;54.176;12.102;2023-11-21T01:33:15;4.10;;;3.80;;
36551;SDS011;22559;54.176;12.102;2023-11-21T01:35:41;4.63;;;4.23;;
36551;SDS011;22559;54.176;12.102;2023-11-21T01:38:07;4.37;;;3.97;;
36551;SDS011;22559;54.176;12.102;2023-11-21T01:40:33;4.20;;;3.73;;
36551;SDS011;22559;54.176;12.102;2023-11-21T01:42:59;4.63;;;3.80;;
36551;SDS011;22559;54.176;12.102;2023-11-21T01:45:27;4.10;;;3.70;;
36551;SDS011;22559;54.176;12.102;2023-11-21T01:47:54;4.10;;;3.73;;
36551;SDS011;22559;54.176;12.102;2023-11-21T01:50:20;3.90;;;3.60;;
36551;SDS011;22559;54.176;12.102;2023-11-21T01:52:47;5.70;;;3.97;;
36551;SDS011;22559;54.176;12.102;2023-11-21T01:55:14;4.30;;;3.80;;
36551;SDS011;22559;54.176;12.102;2023-11-21T01:57:44;3.60;;;3.30;;
36551;SDS011;22559;54.176;12.102;2023-11-21T02:00:11;3.83;;;3.37;;
36551;SDS011;22559;54.176;12.102;2023-11-21T02:02:49;3.83;;;3.50;;
36551;SDS011;22559;54.176;12.102;2023-11-21T02:05:15;4.27;;;3.87;;
36551;SDS011;22559;54.176;12.102;2023-11-21T02:07:43;3.90;;;3.50;;
36551;SDS011;22559;54.176;12.102;2023-11-21T02:10:10;4.10;;;3.70;;
36551;SDS011;22559;54.176;12.102;2023-11-21T02:12:39;4.00;;;3.60;;
36551;SDS011;22559;54.176;12.102;2023-11-21T02:15:07;3.80;;;3.40;;
36551;SDS011;22559;54.176;12.102;2023-11-21T02:17:40;3.03;;;2.83;;
36551;SDS011;22559;54.176;12.102;2023-11-21T02:20:10;3.50;;;3.20;;
36551;SDS011;22559;54.176;12.102;2023-11-21T02:22:40;3.83;;;3.47;;
36551;SDS011;22559;54.176;12.102;2023-11-21T02:25:07;4.00;;;3.57;;
36551;SDS011;22559;54.176;12.102;2023-11-21T02:27:33;3.93;;;3.57;;
36551;SDS011;22559;54.176;12.102;2023-11-21T02:29:58;3.77;;;3.47;;
36551;SDS011;22559;54.176;12.102;2023-11-21T02:32:26;3.57;;;3.27;;
36551;SDS011;22559;54.176;12.102;2023-11-21T02:34:51;3.67;;;3.33;;
36551;SDS011;22559;54.176;12.102;2023-11-21T02:37:18;3.43;;;3.13;;
36551;SDS011;22559;54.176;12.102;2023-11-21T02:39:45;3.97;;;3.57;;
36551;SDS011;22559;54.176;12.102;2023-11-21T02:42:10;3.73;;;3.03;;
36551;SDS011;22559;54.176;12.102;2023-11-21T02:44:36;3.73;;;2.90;;
36551;SDS011;22559;54.176;12.102;2023-11-21T02:47:01;3.10;;;2.87;;
36551;SDS011;22559;54.176;12.102;2023-11-21T02:49:28;3.90;;;2.93;;
36551;SDS011;22559;54.176;12.102;2023-11-21T02:51:54;3.17;;;2.90;;
36551;SDS011;22559;54.176;12.102;2023-11-21T02:54:20;4.53;;;3.23;;
36551;SDS011;22559;54.176;12.102;2023-11-21T02:56:47;3.30;;;3.10;;
36551;SDS011;22559;54.176;12.102;2023-11-21T02:59:14;3.63;;;3.30;;
36551;SDS011;22559;54.176;12.102;2023-11-21T03:01:41;4.13;;;3.23;;
36551;SDS011;22559;54.176;12.102;2023-11-21T03:04:06;3.30;;;3.00;;
36551;SDS011;22559;54.176;12.102;2023-11-21T03:06:32;3.93;;;3.20;;
36551;SDS011;22559;54.176;12.102;2023-11-21T03:08:58;3.57;;;3.27;;
36551;SDS011;22559;54.176;12.102;2023-11-21T03:11:24;3.20;;;2.80;;
36551;SDS011;22559;54.176;12.102;2023-11-21T03:13:50;2.90;;;2.70;;
36551;SDS011;22559;54.176;12.102;2023-11-21T03:16:16;3.07;;;2.87;;
36551;SDS011;22559;54.176;12.102;2023-11-21T03:18:41;4.80;;;3.10;;
36551;SDS011;22559;54.176;12.102;2023-11-21T03:21:08;3.00;;;2.80;;
36551;SDS011;22559;54.176;12.102;2023-11-21T03:23:34;2.87;;;2.67;;
36551;SDS011;22559;54.176;12.102;2023-11-21T03:26:00;3.00;;;2.80;;
36551;SDS011;22559;54.176;12.102;2023-11-21T03:28:27;3.13;;;2.80;;
36551;SDS011;22559;54.176;12.102;2023-11-21T03:30:53;3.40;;;3.10;;
36551;SDS011;22559;54.176;12.102;2023-11-21T03:33:19;3.30;;;3.10;;
36551;SDS011;22559;54.176;12.102;2023-11-21T03:35:44;3.03;;;2.70;;
36551;SDS011;22559;54.176;12.102;2023-11-21T03:38:11;3.20;;;3.00;;
36551;SDS011;22559;54.176;12.102;2023-11-21T03:40:37;3.50;;;3.20;;
36551;SDS011;22559;54.176;12.102;2023-11-21T03:43:04;4.33;;;3.20;;
36551;SDS011;22559;54.176;12.102;2023-11-21T03:45:31;4.27;;;2.80;;
36551;SDS011;22559;54.176;12.102;2023-11-21T03:47:56;3.17;;;2.80;;
36551;SDS011;22559;54.176;12.102;2023-11-21T03:50:22;4.53;;;2.70;;
36551;SDS011;22559;54.176;12.102;2023-11-21T03:52:48;4.27;;;3.23;;
36551;SDS011;22559;54.176;12.102;2023-11-21T03:55:13;3.00;;;2.80;;
36551;SDS011;22559;54.176;12.102;2023-11-21T03:57:40;3.30;;;3.00;;
36551;SDS011;22559;54.176;12.102;2023-11-21T04:00:06;2.90;;;2.70;;
36551;SDS011;22559;54.176;12.102;2023-11-21T04:02:33;3.17;;;2.97;;
36551;SDS011;22559;54.176;12.102;2023-11-21T04:05:00;3.23;;;2.93;;
36551;SDS011;22559;54.176;12.102;2023-11-21T04:07:25;2.83;;;2.63;;
36551;SDS011;22559;54.176;12.102;2023-11-21T04:09:52;2.90;;;2.80;;
36551;SDS011;22559;54.176;12.102;2023-11-21T04:12:18;3.00;;;2.70;;
36551;SDS011;22559;54.176;12.102;2023-11-21T04:14:44;3.40;;;3.13;;
36551;SDS011;22559;54.176;12.102;2023-11-21T04:17:10;2.77;;;2.57;;
36551;SDS011;22559;54.176;12.102;2023-11-21T04:19:35;3.30;;;3.00;;
36551;SDS011;22559;54.176;12.102;2023-11-21T04:22:01;2.87;;;2.63;;
36551;SDS011;22559;54.176;12.102;2023-11-21T04:24:27;3.13;;;2.60;;
36551;SDS011;22559;54.176;12.102;2023-11-21T04:26:52;3.00;;;2.80;;
36551;SDS011;22559;54.176;12.102;2023-11-21T04:29:18;3.30;;;3.00;;
36551;SDS011;22559;54.176;12.102;2023-11-21T04:31:44;3.97;;;3.37;;
36551;SDS011;22559;54.176;12.102;2023-11-21T04:34:09;3.17;;;2.97;;
36551;SDS011;22559;54.176;12.102;2023-11-21T04:36:35;4.33;;;3.10;;
36551;SDS011;22559;54.176;12.102;2023-11-21T04:39:01;3.50;;;2.77;;
36551;SDS011;22559;54.176;12.102;2023-11-21T04:41:26;2.90;;;2.70;;
36551;SDS011;22559;54.176;12.102;2023-11-21T04:43:52;3.23;;;2.70;;
36551;SDS011;22559;54.176;12.102;2023-11-21T04:46:17;3.07;;;2.87;;
36551;SDS011;22559;54.176;12.102;2023-11-21T04:48:43;2.63;;;2.43;;
36551;SDS011;22559;54.176;12.102;2023-11-21T04:51:09;3.30;;;3.00;;
36551;SDS011;22559;54.176;12.102;2023-11-21T04:53:36;6.77;;;3.10;;
36551;SDS011;22559;54.176;12.102;2023-11-21T04:56:02;3.17;;;2.97;;
36551;SDS011;22559;54.176;12.102;2023-11-21T04:58:28;3.53;;;3.00;;
36551;SDS011;22559;54.176;12.102;2023-11-21T05:00:54;2.90;;;2.70;;
36551;SDS011;22559;54.176;12.102;2023-11-21T05:03:19;2.93;;;2.73;;
36551;SDS011;22559;54.176;12.102;2023-11-21T05:05:45;3.00;;;2.77;;
36551;SDS011;22559;54.176;12.102;2023-11-21T05:08:11;3.07;;;2.87;;
36551;SDS011;22559;54.176;12.102;2023-11-21T05:10:37;2.83;;;2.63;;
36551;SDS011;22559;54.176;12.102;2023-11-21T05:13:04;2.80;;;2.60;;
36551;SDS011;22559;54.176;12.102;2023-11-21T05:15:34;2.90;;;2.70;;
36551;SDS011;22559;54.176;12.102;2023-11-21T05:18:00;5.87;;;3.10;;
36551;SDS011;22559;54.176;12.102;2023-11-21T05:20:25;3.20;;;3.00;;
36551;SDS011;22559;54.176;12.102;2023-11-21T05:22:51;3.23;;;3.03;;
36551;SDS011;22559;54.176;12.102;2023-11-21T05:25:17;3.30;;;3.00;;
36551;SDS011;22559;54.176;12.102;2023-11-21T05:27:44;3.03;;;2.83;;
36551;SDS011;22559;54.176;12.102;2023-11-21T05:30:10;3.63;;;3.00;;
36551;SDS011;22559;54.176;12.102;2023-11-21T05:32:36;3.27;;;3.00;;
36551;SDS011;22559;54.176;12.102;2023-11-21T05:35:02;3.17;;;2.67;;
36551;SDS011;22559;54.176;12.102;2023-11-21T05:37:28;4.17;;;3.40;;
36551;SDS011;22559;54.176;12.102;2023-11-21T05:39:54;3.37;;;3.07;;
36551;SDS011;22559;54.176;12.102;2023-11-21T05:42:21;4.27;;;3.77;;
36551;SDS011;22559;54.176;12.102;2023-11-21T05:44:48;4.50;;;3.30;;
36551;SDS011;22559;54.176;12.102;2023-11-21T05:47:14;3.93;;;3.50;;
36551;SDS011;22559;54.176;12.102;2023-11-21T05:49:40;3.67;;;3.37;;
36551;SDS011;22559;54.176;12.102;2023-11-21T05:52:05;7.13;;;3.40;;
36551;SDS011;22559;54.176;12.102;2023-11-21T05:54:32;3.40;;;3.10;;
36551;SDS011;22559;54.176;12.102;2023-11-21T05:56:57;3.73;;;2.97;;
36551;SDS011;22559;54.176;12.102;2023-11-21T05:59:24;3.20;;;2.90;;
36551;SDS011;22559;54.176;12.102;2023-11-21T06:01:49;3.70;;;2.87;;
36551;SDS011;22559;54.176;12.102;2023-11-21T06:04:15;2.93;;;2.73;;
36551;SDS011;22559;54.176;12.102;2023-11-21T06:06:40;4.00;;;3.50;;
36551;SDS011;22559;54.176;12.102;2023-11-21T06:09:06;3.10;;;2.90;;
36551;SDS011;22559;54.176;12.102;2023-11-21T06:11:34;3.37;;;3.07;;
36551;SDS011;22559;54.176;12.102;2023-11-21T06:14:00;3.83;;;3.27;;
36551;SDS011;22559;54.176;12.102;2023-11-21T06:16:26;3.53;;;3.00;;
36551;SDS011;22559;54.176;12.102;2023-11-21T06:18:52;3.33;;;3.00;;
36551;SDS011;22559;54.176;12.102;2023-11-21T06:21:18;4.77;;;3.37;;
36551;SDS011;22559;54.176;12.102;2023-11-21T06:23:44;5.10;;;3.23;;
36551;SDS011;22559;54.176;12.102;2023-11-21T06:26:09;3.27;;;2.93;;
36551;SDS011;22559;54.176;12.102;2023-11-21T06:28:35;3.87;;;3.57;;
36551;SDS011;22559;54.176;12.102;2023-11-21T06:31:01;3.50;;;3.20;;
36551;SDS011;22559;54.176;12.102;2023-11-21T06:33:30;3.87;;;3.53;;
36551;SDS011;22559;54.176;12.102;2023-11-21T06:35:56;5.20;;;3.40;;
36551;SDS011;22559;54.176;12.102;2023-11-21T06:38:22;3.57;;;3.27;;
36551;SDS011;22559;54.176;12.102;2023-11-21T06:40:48;4.17;;;3.03;;
36551;SDS011;22559;54.176;12.102;2023-11-21T06:43:13;3.50;;;3.20;;
36551;SDS011;22559;54.176;12.102;2023-11-21T06:45:39;4.30;;;3.47;;
36551;SDS011;22559;54.176;12.102;2023-11-21T06:48:05;3.63;;;3.40;;
36551;SDS011;22559;54.176;12.102;2023-11-21T06:50:30;3.97;;;3.57;;
36551;SDS011;22559;54.176;12.102;2023-11-21T06:52:56;4.27;;;3.70;;
36551;SDS011;22559;54.176;12.102;2023-11-21T06:55:22;3.50;;;3.20;;
36551;SDS011;22559;54.176;12.102;2023-11-21T06:57:47;3.70;;;3.40;;
36551;SDS011;22559;54.176;12.102;2023-11-21T07:00:13;6.53;;;3.80;;
36551;SDS011;22559;54.176;12.102;2023-11-21T07:02:42;4.13;;;3.63;;
36551;SDS011;22559;54.176;12.102;2023-11-21T07:05:08;3.73;;;3.43;;
36551;SDS011;22559;54.176;12.102;2023-11-21T07:07:34;4.87;;;3.90;;
36551;SDS011;22559;54.176;12.102;2023-11-21T07:10:02;3.83;;;3.53;;
36551;SDS011;22559;54.176;12.102;2023-11-21T07:12:29;4.63;;;4.07;;
36551;SDS011;22559;54.176;12.102;2023-11-21T07:14:56;4.90;;;3.97;;
36551;SDS011;22559;54.176;12.102;2023-11-21T07:17:22;8.43;;;3.83;;
36551;SDS011;22559;54.176;12.102;2023-11-21T07:19:49;4.23;;;3.70;;
36551;SDS011;22559;54.176;12.102;2023-11-21T07:22:15;4.10;;;3.70;;
36551;SDS011;22559;54.176;12.102;2023-11-21T07:24:47;4.67;;;3.87;;
36551;SDS011;22559;54.176;12.102;2023-11-21T07:27:17;3.73;;;3.43;;
36551;SDS011;22559;54.176;12.102;2023-11-21T07:29:43;3.60;;;3.20;;
36551;SDS011;22559;54.176;12.102;2023-11-21T07:32:09;4.63;;;3.53;;
36551;SDS011;22559;54.176;12.102;2023-11-21T07:34:34;4.27;;;3.60;;
36551;SDS011;22559;54.176;12.102;2023-11-21T07:37:01;4.73;;;3.87;;
36551;SDS011;22559;54.176;12.102;2023-11-21T07:39:27;6.37;;;3.73;;
36551;SDS011;22559;54.176;12.102;2023-11-21T07:41:53;5.67;;;3.60;;
36551;SDS011;22559;54.176;12.102;2023-11-21T07:44:19;5.40;;;3.57;;
36551;SDS011;22559;54.176;12.102;2023-11-21T07:46:45;4.37;;;3.40;;
36551;SDS011;22559;54.176;12.102;2023-11-21T07:49:11;3.93;;;3.20;;
36551;SDS011;22559;54.176;12.102;2023-11-21T07:51:40;3.93;;;3.30;;
36551;SDS011;22559;54.176;12.102;2023-11-21T07:54:06;3.60;;;2.97;;
36551;SDS011;22559;54.176;12.102;2023-11-21T07:56:32;3.67;;;3.37;;
36551;SDS011;22559;54.176;12.102;2023-11-21T07:58:58;4.97;;;3.47;;
36551;SDS011;22559;54.176;12.102;2023-11-21T08:01:23;7.57;;;3.40;;
36551;SDS011;22559;54.176;12.102;2023-11-21T08:03:49;3.33;;;3.03;;
36551;SDS011;22559;54.176;12.102;2023-11-21T08:06:17;3.50;;;3.30;;
36551;SDS011;22559;54.176;12.102;2023-11-21T08:08:43;3.77;;;3.43;;
36551;SDS011;22559;54.176;12.102;2023-11-21T08:11:09;3.30;;;3.00;;
36551;SDS011;22559;54.176;12.102;2023-11-21T08:13:35;3.40;;;3.10;;
36551;SDS011;22559;54.176;12.102;2023-11-21T08:16:01;7.10;;;4.00;;
36551;SDS011;22559;54.176;12.102;2023-11-21T08:18:27;3.37;;;2.90;;
36551;SDS011;22559;54.176;12.102;2023-11-21T08:20:54;4.03;;;2.93;;
36551;SDS011;22559;54.176;12.102;2023-11-21T08:23:20;8.23;;;3.30;;
36551;SDS011;22559;54.176;12.102;2023-11-21T08:25:50;5.97;;;3.60;;
36551;SDS011;22559;54.176;12.102;2023-11-21T08:28:16;3.67;;;3.33;;
36551;SDS011;22559;54.176;12.102;2023-11-21T08:30:42;3.10;;;2.83;;
36551;SDS011;22559;54.176;12.102;2023-11-21T08:33:08;3.30;;;3.00;;
36551;SDS011;22559;54.176;12.102;2023-11-21T08:35:34;3.50;;;3.20;;
36551;SDS011;22559;54.176;12.102;2023-11-21T08:38:01;3.87;;;2.97;;
36551;SDS011;22559;54.176;12.102;2023-11-21T08:40:27;3.63;;;2.90;;
36551;SDS011;22559;54.176;12.102;2023-11-21T08:42:53;3.90;;;2.93;;
36551;SDS011;22559;54.176;12.102;2023-11-21T08:45:20;6.07;;;3.30;;
36551;SDS011;22559;54.176;12.102;2023-11-21T08:47:47;3.60;;;3.30;;
36551;SDS011;22559;54.176;12.102;2023-11-21T08:50:13;3.43;;;3.00;;
36551;SDS011;22559;54.176;12.102;2023-11-21T08:52:40;3.60;;;3.30;;
36551;SDS011;22559;54.176;12.102;2023-11-21T08:55:06;4.13;;;3.37;;
36551;SDS011;22559;54.176;12.102;2023-11-21T08:57:33;4.77;;;3.17;;
36551;SDS011;22559;54.176;12.102;2023-11-21T09:00:05;3.83;;;3.17;;
36551;SDS011;22559;54.176;12.102;2023-11-21T09:02:36;3.70;;;3.30;;
36551;SDS011;22559;54.176;12.102;2023-11-21T09:05:03;3.63;;;3.33;;
36551;SDS011;22559;54.176;12.102;2023-11-21T09:07:35;3.20;;;2.90;;
36551;SDS011;22559;54.176;12.102;2023-11-21T09:10:02;3.27;;;2.90;;
36551;SDS011;22559;54.176;12.102;2023-11-21T09:12:28;3.20;;;3.00;;
36551;SDS011;22559;54.176;12.102;2023-11-21T09:14:54;3.87;;;3.10;;
36551;SDS011;22559;54.176;12.102;2023-11-21T09:17:19;3.27;;;2.97;;
36551;SDS011;22559;54.176;12.102;2023-11-21T09:19:45;3.20;;;2.90;;
36551;SDS011;22559;54.176;12.102;2023-11-21T09:22:15;2.73;;;2.53;;
36551;SDS011;22559;54.176;12.102;2023-11-21T09:24:41;2.90;;;2.60;;
36551;SDS011;22559;54.176;12.102;2023-11-21T09:27:07;3.67;;;3.00;;
36551;SDS011;22559;54.176;12.102;2023-11-21T09:29:34;2.67;;;2.47;;
36551;SDS011;22559;54.176;12.102;2023-11-21T09:32:00;3.43;;;3.13;;
36551;SDS011;22559;54.176;12.102;2023-11-21T09:34:26;3.03;;;2.73;;
36551;SDS011;22559;54.176;12.102;2023-11-21T09:36:52;2.50;;;2.40;;
36551;SDS011;22559;54.176;12.102;2023-11-21T09:39:18;2.97;;;2.77;;
36551;SDS011;22559;54.176;12.102;2023-11-21T09:41:51;2.60;;;2.40;;
36551;SDS011;22559;54.176;12.102;2023-11-21T09:44:35;2.40;;;2.30;;
36551;SDS011;22559;54.176;12.102;2023-11-21T09:47:04;3.63;;;2.50;;
36551;SDS011;22559;54.176;12.102;2023-11-21T09:49:35;2.80;;;2.50;;
36551;SDS011;22559;54.176;12.102;2023-11-21T09:52:03;2.77;;;2.43;;
36551;SDS011;22559;54.176;12.102;2023-11-21T09:54:32;2.43;;;2.23;;
36551;SDS011;22559;54.176;12.102;2023-11-21T09:56:59;3.63;;;2.40;;
36551;SDS011;22559;54.176;12.102;2023-11-21T09:59:25;2.80;;;2.60;;
36551;SDS011;22559;54.176;12.102;2023-11-21T10:01:55;3.10;;;2.50;;
36551;SDS011;22559;54.176;12.102;2023-11-21T10:04:23;2.73;;;2.53;;
36551;SDS011;22559;54.176;12.102;2023-11-21T10:06:49;4.20;;;2.70;;
36551;SDS011;22559;54.176;12.102;2023-11-21T10:09:16;3.20;;;2.90;;
36551;SDS011;22559;54.176;12.102;2023-11-21T10:11:42;2.60;;;2.40;;
36551;SDS011;22559;54.176;12.102;2023-11-21T10:14:11;2.90;;;2.40;;
36551;SDS011;22559;54.176;12.102;2023-11-21T10:16:38;2.83;;;2.40;;
36551;SDS011;22559;54.176;12.102;2023-11-21T10:19:05;2.40;;;2.20;;
36551;SDS011;22559;54.176;12.102;2023-11-21T10:21:34;2.33;;;2.13;;
36551;SDS011;22559;54.176;12.102;2023-11-21T10:24:00;2.47;;;2.30;;
36551;SDS011;22559;54.176;12.102;2023-11-21T10:26:29;2.67;;;2.47;;
36551;SDS011;22559;54.176;12.102;2023-11-21T10:28:57;3.47;;;2.03;;
36551;SDS011;22559;54.176;12.102;2023-11-21T10:31:24;4.33;;;2.33;;
36551;SDS011;22559;54.176;12.102;2023-11-21T10:33:54;2.43;;;2.20;;
36551;SDS011;22559;54.176;12.102;2023-11-21T10:36:24;2.43;;;2.13;;
36551;SDS011;22559;54.176;12.102;2023-11-21T10:38:53;2.37;;;2.17;;
36551;SDS011;22559;54.176;12.102;2023-11-21T10:41:20;3.27;;;2.17;;
36551;SDS011;22559;54.176;12.102;2023-11-21T10:43:46;2.40;;;2.00;;
36551;SDS011;22559;54.176;12.102;2023-11-21T10:46:12;3.97;;;2.60;;
36551;SDS011;22559;54.176;12.102;2023-11-21T10:48:40;3.10;;;2.77;;
36551;SDS011;22559;54.176;12.102;2023-11-21T10:51:09;2.80;;;2.60;;
36551;SDS011;22559;54.176;12.102;2023-11-21T10:53:41;2.07;;;1.97;;
36551;SDS011;22559;54.176;12.102;2023-11-21T10:56:08;2.00;;;1.90;;
36551;SDS011;22559;54.176;12.102;2023-11-21T10:58:42;3.33;;;2.50;;
36551;SDS011;22559;54.176;12.102;2023-11-21T11:01:08;2.40;;;2.20;;
36551;SDS011;22559;54.176;12.102;2023-11-21T11:03:39;4.00;;;2.50;;
36551;SDS011;22559;54.176;12.102;2023-11-21T11:06:06;3.13;;;2.17;;
36551;SDS011;22559;54.176;12.102;2023-11-21T11:08:39;2.43;;;2.23;;
36551;SDS011;22559;54.176;12.102;2023-11-21T11:11:06;2.40;;;2.20;;
36551;SDS011;22559;54.176;12.102;2023-11-21T11:13:32;3.13;;;2.60;;
36551;SDS011;22559;54.176;12.102;2023-11-21T11:15:59;2.30;;;2.13;;
36551;SDS011;22559;54.176;12.102;2023-11-21T11:18:29;2.80;;;2.60;;
36551;SDS011;22559;54.176;12.102;2023-11-21T11:20:58;4.87;;;2.03;;
36551;SDS011;22559;54.176;12.102;2023-11-21T11:26:27;2.53;;;2.30;;
36551;SDS011;22559;54.176;12.102;2023-11-21T11:37:11;2.20;;;2.10;;
36551;SDS011;22559;54.176;12.102;2023-11-21T11:39:38;2.73;;;2.23;;
36551;SDS011;22559;54.176;12.102;2023-11-21T11:42:14;2.10;;;1.87;;
36551;SDS011;22559;54.176;12.102;2023-11-21T11:47:29;2.40;;;2.00;;
36551;SDS011;22559;54.176;12.102;2023-11-21T11:50:04;2.63;;;2.07;;
36551;SDS011;22559;54.176;12.102;2023-11-21T11:52:47;3.53;;;2.23;;
36551;SDS011;22559;54.176;12.102;2023-11-21T11:55:16;2.73;;;2.37;;
36551;SDS011;22559;54.176;12.102;2023-11-21T11:57:43;3.93;;;2.30;;
36551;SDS011;22559;54.176;12.102;2023-11-21T12:00:17;4.27;;;2.00;;
36551;SDS011;22559;54.176;12.102;2023-11-21T12:02:53;4.73;;;2.23;;
36551;SDS011;22559;54.176;12.102;2023-11-21T12:05:20;3.27;;;2.17;;
36551;SDS011;22559;54.176;12.102;2023-11-21T12:07:51;3.30;;;2.10;;
36551;SDS011;22559;54.176;12.102;2023-11-21T12:10:19;2.20;;;2.00;;
36551;SDS011;22559;54.176;12.102;2023-11-21T12:12:48;1.90;;;1.80;;
36551;SDS011;22559;54.176;12.102;2023-11-21T12:15:15;4.27;;;2.20;;
36551;SDS011;22559;54.176;12.102;2023-11-21T12:17:42;2.40;;;2.20;;
36551;SDS011;22559;54.176;12.102;2023-11-21T12:20:08;2.20;;;2.10;;
36551;SDS011;22559;54.176;12.102;2023-11-21T12:22:46;3.30;;;1.90;;
36551;SDS011;22559;54.176;12.102;2023-11-21T12:25:24;2.60;;;1.97;;
36551;SDS011;22559;54.176;12.102;2023-11-21T12:27:54;2.30;;;2.00;;
36551;SDS011;22559;54.176;12.102;2023-11-21T12:30:24;1.90;;;1.80;;
36551;SDS011;22559;54.176;12.102;2023-11-21T12:32:53;2.10;;;2.00;;
36551;SDS011;22559;54.176;12.102;2023-11-21T12:35:21;3.13;;;2.17;;
36551;SDS011;22559;54.176;12.102;2023-11-21T12:37:49;2.00;;;1.83;;
36551;SDS011;22559;54.176;12.102;2023-11-21T12:40:16;1.90;;;1.80;;
36551;SDS011;22559;54.176;12.102;2023-11-21T12:42:42;2.00;;;1.90;;
36551;SDS011;22559;54.176;12.102;2023-11-21T12:47:43;1.97;;;1.87;;
36551;SDS011;22559;54.176;12.102;2023-11-21T12:50:12;2.00;;;1.90;;
36551;SDS011;22559;54.176;12.102;2023-11-21T12:52:42;2.37;;;2.17;;
36551;SDS011;22559;54.176;12.102;2023-11-21T12:55:13;3.63;;;2.03;;
36551;SDS011;22559;54.176;12.102;2023-11-21T12:57:41;2.10;;;2.00;;
36551;SDS011;22559;54.176;12.102;2023-11-21T13:00:08;2.30;;;2.07;;
36551;SDS011;22559;54.176;12.102;2023-11-21T13:02:38;2.90;;;2.07;;
36551;SDS011;22559;54.176;12.102;2023-11-21T13:05:07;2.10;;;2.00;;
36551;SDS011;22559;54.176;12.102;2023-11-21T13:07:43;2.10;;;1.97;;
36551;SDS011;22559;54.176;12.102;2023-11-21T13:10:12;2.40;;;2.20;;
36551;SDS011;22559;54.176;12.102;2023-11-21T13:12:42;3.07;;;2.20;;
36551;SDS011;22559;54.176;12.102;2023-11-21T13:15:16;2.37;;;2.17;;
36551;SDS011;22559;54.176;12.102;2023-11-21T13:17:43;4.73;;;2.23;;
36551;SDS011;22559;54.176;12.102;2023-11-21T13:20:10;4.43;;;2.13;;
36551;SDS011;22559;54.176;12.102;2023-11-21T13:22:50;35.40;;;3.87;;
36551;SDS011;22559;54.176;12.102;2023-11-21T13:25:29;2.50;;;2.30;;
36551;SDS011;22559;54.176;12.102;2023-11-21T13:27:56;2.30;;;2.03;;
36551;SDS011;22559;54.176;12.102;2023-11-21T13:30:22;2.20;;;2.00;;
36551;SDS011;22559;54.176;12.102;2023-11-21T13:32:55;1.80;;;1.70;;
36551;SDS011;22559;54.176;12.102;2023-11-21T13:35:22;2.30;;;2.10;;
36551;SDS011;22559;54.176;12.102;2023-11-21T13:38:06;2.30;;;2.10;;
36551;SDS011;22559;54.176;12.102;2023-11-21T13:40:34;2.60;;;2.10;;
36551;SDS011;22559;54.176;12.102;2023-11-21T13:43:08;2.13;;;1.90;;
36551;SDS011;22559;54.176;12.102;2023-11-21T13:45:37;3.30;;;2.33;;
36551;SDS011;22559;54.176;12.102;2023-11-21T13:48:07;3.10;;;2.20;;
36551;SDS011;22559;54.176;12.102;2023-11-21T13:50:41;2.37;;;1.90;;
36551;SDS011;22559;54.176;12.102;2023-11-21T13:53:21;2.23;;;2.07;;
36551;SDS011;22559;54.176;12.102;2023-11-21T13:55:50;4.63;;;2.17;;
36551;SDS011;22559;54.176;12.102;2023-11-21T13:58:19;2.67;;;1.97;;
36551;SDS011;22559;54.176;12.102;2023-11-21T14:01:06;2.00;;;1.90;;
36551;SDS011;22559;54.176;12.102;2023-11-21T14:03:41;2.30;;;2.10;;
36551;SDS011;22559;54.176;12.102;2023-11-21T14:06:17;2.30;;;2.20;;
36551;SDS011;22559;54.176;12.102;2023-11-21T14:08:49;2.47;;;2.17;;
36551;SDS011;22559;54.176;12.102;2023-11-21T14:11:15;2.07;;;1.87;;
36551;SDS011;22559;54.176;12.102;2023-11-21T14:13:43;2.00;;;1.90;;
36551;SDS011;22559;54.176;12.102;2023-11-21T14:16:13;2.43;;;1.80;;
36551;SDS011;22559;54.176;12.102;2023-11-21T14:18:41;3.10;;;1.70;;
36551;SDS011;22559;54.176;12.102;2023-11-21T14:21:18;3.17;;;2.10;;
36551;SDS011;22559;54.176;12.102;2023-11-21T14:23:44;3.97;;;1.90;;
36551;SDS011;22559;54.176;12.102;2023-11-21T14:26:10;2.10;;;2.00;;
36551;SDS011;22559;54.176;12.102;2023-11-21T14:28:39;1.73;;;1.63;;
36551;SDS011;22559;54.176;12.102;2023-11-21T14:31:06;1.90;;;1.70;;
36551;SDS011;22559;54.176;12.102;2023-11-21T14:33:32;1.70;;;1.60;;
36551;SDS011;22559;54.176;12.102;2023-11-21T14:35:58;1.57;;;1.53;;
36551;SDS011;22559;54.176;12.102;2023-11-21T14:38:24;1.57;;;1.50;;
36551;SDS011;22559;54.176;12.102;2023-11-21T14:40:50;3.67;;;1.67;;
36551;SDS011;22559;54.176;12.102;2023-11-21T14:43:15;1.60;;;1.40;;
36551;SDS011;22559;54.176;12.102;2023-11-21T14:45:42;2.80;;;1.80;;
36551;SDS011;22559;54.176;12.102;2023-11-21T14:48:07;1.80;;;1.70;;
36551;SDS011;22559;54.176;12.102;2023-11-21T14:50:41;1.80;;;1.70;;